Anloo, Netherlands
Current Conditions -  °F | °C
As of 5:55 PM on Tuesday 27 Jan 2015 (Local Time) from EHGG Reporting Station
Broken Clouds Broken Clouds  
Wind Chill: 36°   Ceiling: 2100
Heat Index: 41°   Visibility: 6mi
Dew Point: 39°   Wind: 8mph
Humidity: 93%   Direction: 290°WNW
Pressure: 30.12"   Gusts: NA
Location:  53.04°N, 6.7°E
Report Text: EHGG 271655Z AUTO 29007KT 250V310 9000 SCT008 SCT016 BKN02105/04 Q1020 NOSIG
Loading
Personal Weather Stations






























Interactive Weather Map New forecast layout! Learn more

10-Day Weather Forecast

Advertisements
Track Severe Weather on mobile